Time;durP1;ratioP1;P1;durP2;ratioP2;P2;SDS_P1;SDS_P2;PMS_P1;PMS_P2;Temp;Humidity;BMP_temperature;BMP_pressure;BME280_temperature;BME280_humidity;BME280_pressure;Samples;Min_cycle;Max_cycle;Signal;HPM_P1;HPM_P2
2023/04/21 00:01:40;;;;;;;30.40;10.50;;;;;;;7.31;79.18;100559.79;110216;1271;22655;-59
2023/04/21 00:04:13;;;;;;;32.30;10.80;;;;;;;7.30;79.36;100556.94;110248;1274;22232;-58
2023/04/21 00:06:44;;;;;;;33.00;11.70;;;;;;;7.30;79.42;100553.67;110210;1267;23019;-59
2023/04/21 00:09:15;;;;;;;26.60;10.90;;;;;;;7.31;79.99;100553.23;110194;1274;22332;-59
2023/04/21 00:11:46;;;;;;;30.60;11.90;;;;;;;7.35;80.17;100556.05;110229;1274;22226;-60
2023/04/21 00:14:17;;;;;;;28.00;11.40;;;;;;;7.39;80.36;100556.24;110198;1267;22177;-59
2023/04/21 00:16:51;;;;;;;32.50;11.50;;;;;;;7.41;80.68;100553.25;110209;1271;22239;-58
2023/04/21 00:19:22;;;;;;;28.10;11.50;;;;;;;7.42;80.59;100550.91;110155;1277;22211;-56
2023/04/21 00:21:57;;;;;;;32.40;12.20;;;;;;;7.42;80.71;100548.13;110181;1273;22197;-59
2023/04/21 00:24:28;;;;;;;25.80;11.80;;;;;;;7.42;80.56;100549.08;110186;1267;22194;-59
2023/04/21 00:27:00;;;;;;;30.90;11.60;;;;;;;7.42;80.96;100544.24;110251;1273;22164;-58
2023/04/21 00:29:30;;;;;;;31.00;12.30;;;;;;;7.42;80.93;100544.02;110226;1271;22304;-59
2023/04/21 00:32:02;;;;;;;31.50;11.50;;;;;;;7.40;80.89;100544.72;110197;1261;22357;-58
2023/04/21 00:34:33;;;;;;;26.40;10.40;;;;;;;7.36;80.86;100542.56;110240;1274;22492;-58
2023/04/21 00:37:04;;;;;;;29.00;11.00;;;;;;;7.36;80.91;100544.85;110222;1265;22263;-58
2023/04/21 00:39:35;;;;;;;34.20;11.40;;;;;;;7.35;81.09;100545.58;110303;1264;22262;-58
2023/04/21 00:42:06;;;;;;;30.70;12.00;;;;;;;7.31;81.31;100546.42;110286;1266;22202;-61
2023/04/21 00:44:37;;;;;;;31.00;11.30;;;;;;;7.31;81.63;100544.95;110277;1271;22209;-58
2023/04/21 00:47:08;;;;;;;31.40;13.30;;;;;;;7.32;81.72;100546.90;110298;1270;23110;-59
2023/04/21 00:49:39;;;;;;;32.40;13.20;;;;;;;7.33;82.02;100545.70;110340;1276;22202;-59
2023/04/21 00:52:11;;;;;;;32.50;13.30;;;;;;;7.39;82.62;100547.45;110318;1266;22233;-59
2023/04/21 00:54:42;;;;;;;36.70;12.70;;;;;;;7.42;82.63;100546.86;110287;1271;22412;-60
2023/04/21 00:57:13;;;;;;;30.00;12.70;;;;;;;7.43;82.51;100543.01;110297;1261;22273;-59
2023/04/21 00:59:44;;;;;;;27.90;13.10;;;;;;;7.44;82.70;100544.73;110378;1267;22300;-59
2023/04/21 01:02:16;;;;;;;35.30;14.20;;;;;;;7.46;82.78;100544.52;110289;1271;22392;-59
2023/04/21 01:04:47;;;;;;;28.90;12.60;;;;;;;7.46;82.51;100539.80;110216;1272;22158;-60
2023/04/21 01:07:18;;;;;;;30.00;12.70;;;;;;;7.46;82.16;100543.16;110263;1276;22267;-58
2023/04/21 01:09:49;;;;;;;32.90;13.20;;;;;;;7.44;82.09;100541.55;110216;1271;22203;-58
2023/04/21 01:12:19;;;;;;;32.80;12.90;;;;;;;7.42;82.21;100546.15;110306;1274;22224;-58
2023/04/21 01:14:51;;;;;;;32.50;13.20;;;;;;;7.40;82.07;100544.54;110279;1271;22181;-61
2023/04/21 01:17:22;;;;;;;31.20;13.50;;;;;;;7.39;81.90;100547.21;110360;1274;22246;-58
2023/04/21 01:19:56;;;;;;;33.40;12.40;;;;;;;7.35;81.84;100546.22;110195;1262;25028;-58
2023/04/21 01:22:28;;;;;;;32.00;11.80;;;;;;;7.31;81.81;100543.65;110322;1267;22218;-58
2023/04/21 01:24:59;;;;;;;33.40;12.00;;;;;;;7.28;81.90;100542.41;110372;1266;23049;-57
2023/04/21 01:27:29;;;;;;;34.10;12.60;;;;;;;7.25;81.85;100542.42;110352;1269;22205;-59
2023/04/21 01:30:00;;;;;;;31.90;12.00;;;;;;;7.20;81.68;100539.69;110232;1271;22182;-58
2023/04/21 01:32:31;;;;;;;31.50;13.30;;;;;;;7.16;81.66;100537.59;110245;1273;23163;-57
2023/04/21 01:35:02;;;;;;;37.90;14.70;;;;;;;7.13;81.76;100534.66;110297;1262;22417;-59
2023/04/21 01:37:34;;;;;;;33.50;14.50;;;;;;;7.09;81.76;100536.19;110308;1271;22314;-58
2023/04/21 01:40:08;;;;;;;33.80;14.00;;;;;;;7.05;81.89;100533.99;109774;1266;22527;-58
2023/04/21 01:42:41;;;;;;;28.80;13.30;;;;;;;7.02;81.83;100532.85;110296;1274;22256;-59
2023/04/21 01:45:12;;;;;;;35.10;13.30;;;;;;;7.00;81.85;100534.20;110311;1266;22171;-57
2023/04/21 01:47:43;;;;;;;30.20;13.70;;;;;;;6.98;81.74;100535.74;110348;1273;22246;-59
2023/04/21 01:50:14;;;;;;;32.50;13.70;;;;;;;6.97;81.72;100538.71;110279;1273;22185;-59
2023/04/21 01:52:45;;;;;;;33.80;13.40;;;;;;;6.95;81.82;100539.88;110299;1277;22189;-59
2023/04/21 01:55:16;;;;;;;29.80;13.30;;;;;;;6.92;81.77;100542.29;110311;1274;22422;-59
2023/04/21 01:57:47;;;;;;;28.60;12.30;;;;;;;6.89;81.83;100537.71;110205;1274;22997;-59
2023/04/21 02:00:19;;;;;;;28.90;12.40;;;;;;;6.88;81.98;100537.92;110211;1273;22186;-58
2023/04/21 02:02:49;;;;;;;29.40;12.20;;;;;;;6.87;82.16;100535.56;110191;1269;22190;-59
2023/04/21 02:05:20;;;;;;;34.20;13.60;;;;;;;6.87;82.25;100537.08;110236;1267;22954;-59
2023/04/21 02:07:51;;;;;;;31.30;13.40;;;;;;;6.88;82.47;100534.69;110192;1262;22338;-58
2023/04/21 02:10:22;;;;;;;27.70;12.10;;;;;;;6.87;82.66;100534.92;110318;1277;22197;-59
2023/04/21 02:12:53;;;;;;;34.50;12.80;;;;;;;6.87;82.52;100533.88;110227;1274;22967;-59
2023/04/21 02:15:24;;;;;;;30.70;12.40;;;;;;;6.86;82.53;100533.23;110286;1272;22190;-58
2023/04/21 02:17:55;;;;;;;29.00;12.90;;;;;;;6.84;82.56;100528.05;110228;1274;22366;-59
2023/04/21 02:20:26;;;;;;;27.90;11.70;;;;;;;6.83;82.47;100528.57;110316;1267;22320;-58
2023/04/21 02:22:56;;;;;;;30.90;12.40;;;;;;;6.82;82.30;100534.01;110313;1270;22368;-61
2023/04/21 02:25:28;;;;;;;26.50;11.30;;;;;;;6.80;82.21;100533.09;110198;1277;22302;-59
2023/04/21 02:27:59;;;;;;;32.00;11.90;;;;;;;6.76;82.20;100534.89;110250;1266;22125;-61
2023/04/21 02:30:30;;;;;;;29.00;12.30;;;;;;;6.69;82.34;100533.39;110295;1267;22392;-58
2023/04/21 02:33:01;;;;;;;33.80;12.30;;;;;;;6.63;82.33;100538.02;110305;1268;22141;-60
2023/04/21 02:35:33;;;;;;;32.80;12.20;;;;;;;6.61;82.47;100535.46;110300;1271;22381;-57
2023/04/21 02:38:06;;;;;;;30.30;12.10;;;;;;;6.58;82.47;100538.51;110303;1264;23256;-58
2023/04/21 02:40:37;;;;;;;31.70;11.40;;;;;;;6.55;83.05;100539.68;110205;1277;22428;-59
2023/04/21 02:43:07;;;;;;;27.30;11.30;;;;;;;6.57;82.82;100550.36;110231;1266;22233;-58
2023/04/21 02:45:39;;;;;;;27.80;11.70;;;;;;;6.54;82.69;100546.94;110215;1267;23027;-59
2023/04/21 02:48:10;;;;;;;27.90;12.50;;;;;;;6.51;82.49;100552.02;110296;1274;22945;-59
2023/04/21 02:50:42;;;;;;;30.70;13.00;;;;;;;6.48;82.69;100558.61;110276;1274;22951;-59
2023/04/21 02:53:13;;;;;;;35.90;12.50;;;;;;;6.47;82.75;100558.11;110271;1262;22166;-59
2023/04/21 02:55:44;;;;;;;26.80;11.70;;;;;;;6.46;82.81;100555.59;110192;1277;22248;-59
2023/04/21 02:58:15;;;;;;;33.20;13.60;;;;;;;6.42;82.62;100556.02;110271;1267;22182;-57
2023/04/21 03:00:46;;;;;;;31.00;12.80;;;;;;;6.40;82.58;100556.66;110200;1270;22300;-58
2023/04/21 03:03:18;;;;;;;29.10;12.60;;;;;;;6.35;82.57;100553.63;110263;1266;22360;-59
2023/04/21 03:05:49;;;;;;;37.40;14.30;;;;;;;6.30;82.68;100557.03;110296;1271;22224;-59
2023/04/21 03:08:20;;;;;;;29.00;12.50;;;;;;;6.26;82.44;100558.58;110177;1271;22260;-59
2023/04/21 03:10:51;;;;;;;30.00;12.10;;;;;;;6.21;82.59;100556.35;110246;1270;22163;-58
2023/04/21 03:13:22;;;;;;;32.80;11.70;;;;;;;6.19;82.66;100557.92;110227;1277;22216;-60
2023/04/21 03:15:53;;;;;;;28.50;12.30;;;;;;;6.17;82.66;100558.39;110194;1274;22154;-59
2023/04/21 03:18:24;;;;;;;30.20;12.20;;;;;;;6.13;82.53;100565.31;110241;1274;22156;-58
2023/04/21 03:21:01;;;;;;;29.10;12.90;;;;;;;6.10;82.54;100566.91;110142;1270;22202;-59
2023/04/21 03:23:31;;;;;;;28.20;11.60;;;;;;;6.07;82.60;100566.59;110254;1269;22436;-59
2023/04/21 03:26:06;;;;;;;31.00;13.50;;;;;;;6.05;82.44;100567.69;110200;1264;22219;-59
2023/04/21 03:28:37;;;;;;;31.20;13.30;;;;;;;6.00;82.60;100565.54;110208;1278;22192;-58
2023/04/21 03:31:07;;;;;;;30.20;11.80;;;;;;;5.98;82.40;100566.87;110132;1272;22156;-58
2023/04/21 03:33:38;;;;;;;32.60;13.80;;;;;;;5.98;82.51;100562.12;106114;1277;22519;-59
2023/04/21 03:36:10;;;;;;;31.50;12.40;;;;;;;5.95;82.43;100564.73;106114;1264;22585;-60
2023/04/21 03:38:41;;;;;;;33.30;13.80;;;;;;;5.92;82.39;100566.02;108044;1273;25040;-57
2023/04/21 03:41:12;;;;;;;35.60;15.00;;;;;;;5.88;82.36;100565.17;106309;1277;22517;-59
2023/04/21 03:43:43;;;;;;;32.90;14.20;;;;;;;5.86;82.63;100569.50;106164;1277;22738;-57
2023/04/21 03:46:20;;;;;;;36.30;13.50;;;;;;;5.82;82.80;100564.20;110154;1273;22175;-60
2023/04/21 03:48:52;;;;;;;33.60;14.80;;;;;;;5.82;82.81;100565.73;110233;1274;23191;-60
2023/04/21 03:51:23;;;;;;;36.20;14.20;;;;;;;5.81;82.87;100567.25;110318;1266;22145;-60
2023/04/21 03:53:54;;;;;;;33.20;13.70;;;;;;;5.78;82.67;100568.35;110223;1273;22295;-60
2023/04/21 03:56:25;;;;;;;33.70;13.00;;;;;;;5.75;82.72;100573.42;110217;1273;22171;-61
2023/04/21 03:58:55;;;;;;;31.40;12.90;;;;;;;5.72;82.62;100570.42;110317;1270;22361;-60
2023/04/21 04:01:26;;;;;;;36.50;13.80;;;;;;;5.68;82.66;100573.92;110221;1276;22639;-56
2023/04/21 04:03:57;;;;;;;31.30;13.80;;;;;;;5.66;82.75;100579.92;110237;1274;22161;-55
2023/04/21 04:06:28;;;;;;;38.50;14.90;;;;;;;5.63;82.78;100581.19;110247;1264;22258;-58
2023/04/21 04:09:01;;;;;;;37.10;15.50;;;;;;;5.59;83.05;100581.23;110198;1266;22870;-57
2023/04/21 04:11:32;;;;;;;30.60;14.50;;;;;;;5.55;82.99;100586.14;110219;1273;22412;-55
2023/04/21 04:14:02;;;;;;;33.70;15.40;;;;;;;5.51;83.18;100584.20;110193;1271;22181;-55
2023/04/21 04:16:36;;;;;;;33.90;13.90;;;;;;;5.48;83.20;100582.94;110215;1277;22436;-55
2023/04/21 04:19:07;;;;;;;33.10;13.10;;;;;;;5.46;83.36;100585.85;110257;1274;22341;-56
2023/04/21 04:21:38;;;;;;;32.60;12.80;;;;;;;5.45;83.36;100588.40;110286;1272;23152;-57
2023/04/21 04:24:10;;;;;;;33.90;14.20;;;;;;;5.46;83.47;100589.16;110229;1267;23156;-56
2023/04/21 04:26:41;;;;;;;36.20;13.60;;;;;;;5.44;83.60;100591.43;110269;1267;22654;-57
2023/04/21 04:29:12;;;;;;;34.70;12.80;;;;;;;5.44;83.68;100592.16;110366;1268;22179;-55
2023/04/21 04:31:44;;;;;;;30.10;12.60;;;;;;;5.45;83.64;100594.11;110218;1271;22246;-58
2023/04/21 04:34:15;;;;;;;28.60;12.70;;;;;;;5.46;83.72;100592.42;110228;1268;23223;-55
2023/04/21 04:36:46;;;;;;;31.40;13.10;;;;;;;5.47;83.81;100592.92;110120;1274;22297;-56
2023/04/21 04:39:18;;;;;;;32.90;13.00;;;;;;;5.50;83.83;100589.31;110113;1276;22177;-58
2023/04/21 04:41:48;;;;;;;30.10;12.50;;;;;;;5.51;83.82;100588.64;110111;1277;22265;-56
2023/04/21 04:44:19;;;;;;;35.90;13.90;;;;;;;5.54;83.83;100593.45;110104;1278;22146;-53
2023/04/21 04:46:51;;;;;;;32.80;14.10;;;;;;;5.58;84.16;100588.86;110088;1270;22171;-56
2023/04/21 04:49:22;;;;;;;31.10;13.60;;;;;;;5.62;84.06;100590.72;110100;1276;22203;-54
2023/04/21 04:51:53;;;;;;;30.40;12.40;;;;;;;5.65;84.23;100591.58;110104;1275;23056;-55
2023/04/21 04:54:24;;;;;;;33.30;12.90;;;;;;;5.69;84.20;100591.62;110088;1274;22912;-54
2023/04/21 04:56:56;;;;;;;36.50;14.90;;;;;;;5.74;84.35;100591.41;108067;1264;22939;-56
2023/04/21 04:59:27;;;;;;;30.50;13.70;;;;;;;5.79;84.75;100588.20;109911;1263;22887;-61
2023/04/21 05:01:58;;;;;;;37.70;15.60;;;;;;;5.83;84.84;100591.43;106070;1278;22565;-57
2023/04/21 05:04:29;;;;;;;33.80;15.40;;;;;;;5.86;85.09;100593.72;106124;1271;25356;-54
2023/04/21 05:07:00;;;;;;;32.70;14.90;;;;;;;5.91;85.34;100592.10;106129;1276;22538;-56
2023/04/21 05:09:30;;;;;;;33.00;14.40;;;;;;;5.93;85.48;100590.05;106257;1278;23370;-54
2023/04/21 05:12:02;;;;;;;33.50;14.30;;;;;;;5.95;85.79;100593.00;106203;1278;22978;-55
2023/04/21 05:14:33;;;;;;;33.20;15.70;;;;;;;6.00;85.93;100590.00;106177;1277;25444;-56
2023/04/21 05:17:04;;;;;;;41.20;16.80;;;;;;;6.06;86.28;100585.48;106279;1277;25380;-54
2023/04/21 05:19:37;;;;;;;42.50;17.10;;;;;;;6.09;86.69;100591.90;106266;1270;22881;-55
2023/04/21 05:22:08;;;;;;;37.30;17.10;;;;;;;6.11;86.76;100594.44;110168;1267;23151;-56
2023/04/21 05:24:41;;;;;;;38.50;17.30;;;;;;;6.17;87.22;100588.48;110159;1273;22906;-55
2023/04/21 05:27:12;;;;;;;47.90;18.00;;;;;;;6.24;87.41;100587.64;110161;1276;22246;-55
2023/04/21 05:29:42;;;;;;;34.60;16.30;;;;;;;6.30;87.43;100591.41;110145;1270;22408;-57
2023/04/21 05:32:14;;;;;;;39.70;17.30;;;;;;;6.40;87.98;100596.02;110145;1274;22278;-55
2023/04/21 05:34:45;;;;;;;37.60;18.70;;;;;;;6.50;87.93;100595.34;110176;1270;22189;-55
2023/04/21 05:37:16;;;;;;;39.10;17.50;;;;;;;6.59;88.34;100595.36;110243;1270;22324;-56
2023/04/21 05:39:47;;;;;;;43.80;18.50;;;;;;;6.70;88.64;100593.61;110242;1264;22533;-55
2023/04/21 05:42:18;;;;;;;35.70;16.70;;;;;;;6.81;88.88;100593.09;110274;1263;22199;-56
2023/04/21 05:44:49;;;;;;;38.70;17.40;;;;;;;6.94;88.62;100589.80;110245;1271;22180;-54
2023/04/21 05:47:19;;;;;;;32.90;16.80;;;;;;;7.09;88.55;100592.59;110273;1270;22223;-55
2023/04/21 05:49:53;;;;;;;35.30;16.60;;;;;;;7.24;87.94;100589.20;110247;1270;22236;-57
2023/04/21 05:52:25;;;;;;;33.30;14.70;;;;;;;7.38;87.29;100594.70;106405;1270;24263;-55
2023/04/21 05:54:58;;;;;;;40.10;14.80;;;;;;;7.52;87.45;100596.92;106365;1276;22547;-55
2023/04/21 05:57:29;;;;;;;37.40;15.30;;;;;;;7.65;87.05;100596.38;105997;1264;5593823;-56
2023/04/21 06:00:00;;;;;;;34.00;14.70;;;;;;;7.75;86.81;100598.07;110222;1270;22922;-56
2023/04/21 06:02:31;;;;;;;32.20;14.00;;;;;;;7.86;86.54;100600.45;110219;1270;22243;-55
2023/04/21 06:05:02;;;;;;;36.10;15.00;;;;;;;7.98;86.50;100598.43;110256;1270;22331;-55
2023/04/21 06:07:35;;;;;;;32.10;13.80;;;;;;;8.09;86.29;100596.09;110300;1276;22341;-55
2023/04/21 06:10:08;;;;;;;34.80;16.30;;;;;;;8.19;85.95;100591.90;110191;1263;22319;-55
2023/04/21 06:12:39;;;;;;;37.80;16.40;;;;;;;8.31;86.09;100599.23;110161;1270;22336;-56
2023/04/21 06:15:11;;;;;;;41.80;16.70;;;;;;;8.41;85.48;100598.20;110296;1270;22317;-55
2023/04/21 06:17:41;;;;;;;36.90;15.30;;;;;;;8.51;85.59;100600.52;110252;1271;22185;-55
2023/04/21 06:20:13;;;;;;;40.00;18.10;;;;;;;8.62;85.65;100604.04;110232;1268;22394;-56
2023/04/21 06:22:44;;;;;;;47.50;20.40;;;;;;;8.72;85.29;100604.11;110247;1277;22237;-58
2023/04/21 06:25:15;;;;;;;38.90;18.00;;;;;;;8.83;84.72;100601.23;110252;1277;22926;-58
2023/04/21 06:27:46;;;;;;;37.50;15.70;;;;;;;8.93;84.50;100598.65;110166;1276;22165;-56
2023/04/21 06:30:17;;;;;;;36.40;17.30;;;;;;;9.04;84.34;100595.44;110161;1270;22305;-57
2023/04/21 06:32:48;;;;;;;36.20;15.30;;;;;;;9.15;83.96;100590.88;110244;1270;23000;-59
2023/04/21 06:35:19;;;;;;;41.80;18.00;;;;;;;9.24;84.06;100591.03;110240;1270;22447;-55
2023/04/21 06:37:50;;;;;;;37.20;16.00;;;;;;;9.37;83.92;100587.55;110243;1274;23021;-57
2023/04/21 06:40:21;;;;;;;54.00;24.90;;;;;;;9.47;83.41;100590.69;110298;1271;22177;-55
2023/04/21 06:42:52;;;;;;;39.50;17.20;;;;;;;9.56;83.46;100592.02;110245;1273;22244;-57
2023/04/21 06:45:23;;;;;;;37.60;16.30;;;;;;;9.67;83.19;100586.30;110263;1271;22816;-55
2023/04/21 06:47:54;;;;;;;30.00;14.40;;;;;;;9.77;82.63;100588.44;110191;1270;22219;-55
2023/04/21 06:50:25;;;;;;;30.40;14.80;;;;;;;9.87;82.48;100588.95;110241;1270;22193;-56
2023/04/21 06:52:56;;;;;;;38.30;15.70;;;;;;;9.95;82.16;100586.34;110230;1264;22412;-55
2023/04/21 06:55:27;;;;;;;43.60;18.60;;;;;;;10.03;81.82;100583.02;110259;1276;23109;-55
2023/04/21 06:57:57;;;;;;;41.10;16.50;;;;;;;10.12;81.93;100584.08;110251;1270;22293;-58
2023/04/21 07:00:29;;;;;;;35.60;15.30;;;;;;;10.22;81.45;100586.02;110169;1272;22212;-55
2023/04/21 07:03:00;;;;;;;35.80;14.60;;;;;;;10.31;81.06;100584.39;110226;1270;22166;-57
2023/04/21 07:05:31;;;;;;;34.90;14.70;;;;;;;10.41;80.78;100583.16;110241;1273;22150;-56
2023/04/21 07:08:02;;;;;;;43.30;17.00;;;;;;;10.48;80.47;100587.05;110265;1270;22337;-55
2023/04/21 07:10:33;;;;;;;36.70;16.30;;;;;;;10.54;79.99;100584.67;110253;1276;22376;-55
2023/04/21 07:13:03;;;;;;;34.20;13.80;;;;;;;10.63;79.99;100583.89;110232;1273;22241;-56
2023/04/21 07:15:34;;;;;;;34.00;14.20;;;;;;;10.71;79.56;100584.11;110196;1277;23105;-58
2023/04/21 07:18:05;;;;;;;28.90;13.10;;;;;;;10.81;79.74;100587.48;110267;1271;22387;-57
2023/04/21 07:20:36;;;;;;;25.90;11.40;;;;;;;10.93;79.37;100590.08;110098;1276;22336;-56
2023/04/21 07:23:07;;;;;;;24.10;10.70;;;;;;;11.06;79.29;100585.13;110222;1271;22243;-56
2023/04/21 07:25:38;;;;;;;31.50;12.60;;;;;;;11.21;79.03;100587.54;110210;1270;22955;-57
2023/04/21 07:28:10;;;;;;;25.00;12.00;;;;;;;11.29;78.73;100587.55;110229;1274;22178;-58
2023/04/21 07:30:41;;;;;;;25.60;10.70;;;;;;;11.37;78.10;100585.88;110198;1273;22407;-57
2023/04/21 07:33:12;;;;;;;26.30;11.00;;;;;;;11.46;78.08;100590.39;110168;1276;22140;-55
2023/04/21 07:35:43;;;;;;;28.10;11.40;;;;;;;11.57;78.04;100590.58;110184;1271;22249;-56
2023/04/21 07:38:14;;;;;;;26.50;11.60;;;;;;;11.62;77.17;100590.48;110120;1276;23010;-55
2023/04/21 07:40:45;;;;;;;25.50;10.50;;;;;;;11.68;76.86;100587.27;110127;1273;22221;-58
2023/04/21 07:43:17;;;;;;;25.90;10.80;;;;;;;11.75;76.88;100588.42;110113;1276;22181;-57
2023/04/21 07:45:47;;;;;;;27.60;11.10;;;;;;;11.81;76.59;100589.52;110149;1270;23021;-55
2023/04/21 07:48:18;;;;;;;25.60;11.30;;;;;;;11.89;76.46;100586.94;110167;1273;22285;-57
2023/04/21 07:50:50;;;;;;;28.30;11.10;;;;;;;11.96;76.27;100587.16;110139;1272;22305;-58
2023/04/21 07:53:21;;;;;;;27.50;11.60;;;;;;;12.03;76.16;100588.52;110125;1264;23041;-56
2023/04/21 07:55:52;;;;;;;28.90;11.70;;;;;;;12.10;75.87;100584.83;110071;1273;22586;-58
2023/04/21 07:58:23;;;;;;;29.90;12.70;;;;;;;12.16;75.57;100588.11;110149;1273;22247;-55
2023/04/21 08:00:54;;;;;;;24.70;11.70;;;;;;;12.21;74.87;100585.48;110142;1270;22264;-57
2023/04/21 08:03:25;;;;;;;26.10;12.00;;;;;;;12.25;74.97;100584.64;110166;1264;22508;-56
2023/04/21 08:05:56;;;;;;;25.80;11.40;;;;;;;12.31;74.18;100582.45;110127;1272;22241;-58
2023/04/21 08:08:27;;;;;;;26.60;11.00;;;;;;;12.40;73.93;100585.75;110106;1273;22378;-58
2023/04/21 08:10:58;;;;;;;24.20;10.50;;;;;;;12.47;73.62;100587.87;110115;1271;22313;-58
2023/04/21 08:13:29;;;;;;;25.50;11.80;;;;;;;12.55;72.42;100586.98;110125;1271;22335;-57
2023/04/21 08:15:59;;;;;;;24.90;12.20;;;;;;;12.64;72.73;100586.52;110155;1274;23119;-56
2023/04/21 08:18:31;;;;;;;24.00;10.90;;;;;;;12.70;72.95;100590.19;110160;1274;22332;-58
2023/04/21 08:21:01;;;;;;;29.00;11.20;;;;;;;12.76;72.34;100584.98;110116;1272;22178;-57
2023/04/21 08:23:32;;;;;;;26.00;12.40;;;;;;;12.83;72.42;100582.59;110151;1273;22401;-57
2023/04/21 08:26:03;;;;;;;26.00;11.00;;;;;;;12.92;72.28;100581.91;109165;1273;22690;-57
2023/04/21 08:28:34;;;;;;;25.10;11.70;;;;;;;12.99;71.44;100579.01;110155;1278;22714;-58
2023/04/21 08:31:05;;;;;;;26.00;11.10;;;;;;;13.10;71.16;100580.77;110143;1274;22967;-57
2023/04/21 08:33:36;;;;;;;26.90;11.90;;;;;;;13.18;70.95;100580.58;110119;1272;23236;-57
2023/04/21 08:36:08;;;;;;;21.00;9.60;;;;;;;13.26;70.63;100577.48;110147;1273;23036;-58
2023/04/21 08:38:40;;;;;;;24.10;10.50;;;;;;;13.38;70.88;100576.47;110241;1267;22194;-58
2023/04/21 08:41:11;;;;;;;24.50;11.00;;;;;;;13.46;70.42;100571.67;110220;1270;22919;-57
2023/04/21 08:43:42;;;;;;;24.70;10.80;;;;;;;13.55;70.13;100569.44;110240;1271;22142;-57
2023/04/21 08:46:14;;;;;;;27.50;11.40;;;;;;;13.67;70.28;100570.45;110289;1270;22184;-56
2023/04/21 08:48:47;;;;;;;27.10;10.90;;;;;;;13.76;70.07;100569.98;110162;1267;22386;-57
2023/04/21 08:51:23;;;;;;;26.30;9.80;;;;;;;13.83;69.03;100570.19;110210;1271;23037;-58
2023/04/21 08:57:32;;;;;;;26.90;11.80;;;;;;;14.06;69.02;100568.84;110192;1273;22172;-59
2023/04/21 09:00:03;;;;;;;23.80;12.50;;;;;;;14.12;69.00;100571.44;110227;1273;23080;-55
2023/04/21 09:02:35;;;;;;;28.10;12.30;;;;;;;14.20;69.52;100571.77;110238;1271;22233;-58
2023/04/21 09:05:07;;;;;;;27.90;12.10;;;;;;;14.29;69.38;100567.44;110222;1270;22342;-58
2023/04/21 09:07:40;;;;;;;23.20;11.30;;;;;;;14.35;68.51;100571.33;110251;1278;23057;-58
2023/04/21 09:10:11;;;;;;;29.00;10.80;;;;;;;14.38;67.90;100566.11;110282;1270;22853;-57
2023/04/21 09:12:42;;;;;;;22.60;10.30;;;;;;;14.46;68.14;100561.63;110210;1274;22400;-56
2023/04/21 09:15:13;;;;;;;27.90;11.50;;;;;;;14.53;68.08;100556.73;110173;1267;22271;-58
2023/04/21 09:17:46;;;;;;;23.10;10.40;;;;;;;14.59;68.12;100557.54;110280;1267;23592;-58
2023/04/21 09:20:19;;;;;;;24.80;10.50;;;;;;;14.66;67.78;100557.29;110258;1264;22203;-58
2023/04/21 09:22:51;;;;;;;23.80;10.50;;;;;;;14.72;67.57;100552.32;110174;1262;22199;-58
2023/04/21 09:25:22;;;;;;;23.50;9.90;;;;;;;14.79;66.83;100553.09;110229;1277;22353;-58
2023/04/21 09:27:56;;;;;;;28.10;12.00;;;;;;;14.86;66.83;100547.72;110211;1271;22351;-57
2023/04/21 09:30:27;;;;;;;25.60;10.80;;;;;;;14.92;66.55;100540.91;110220;1271;22281;-58
2023/04/21 09:32:59;;;;;;;23.50;10.30;;;;;;;15.01;66.18;100537.48;110244;1264;22176;-57
2023/04/21 09:35:33;;;;;;;23.70;12.00;;;;;;;15.13;66.68;100539.28;110262;1270;23084;-59
2023/04/21 09:38:09;;;;;;;23.80;11.40;;;;;;;15.26;65.96;100536.70;110247;1262;22361;-56
2023/04/21 09:40:40;;;;;;;25.40;11.80;;;;;;;15.43;65.82;100531.98;110271;1274;22233;-57
2023/04/21 09:43:11;;;;;;;24.20;9.40;;;;;;;15.52;64.99;100533.61;110252;1270;22179;-58
2023/04/21 09:45:42;;;;;;;23.00;9.10;;;;;;;15.60;64.21;100526.33;110247;1264;22205;-57
2023/04/21 09:48:15;;;;;;;20.90;9.10;;;;;;;15.68;64.30;100531.10;110168;1274;23131;-58
2023/04/21 09:50:48;;;;;;;22.20;9.10;;;;;;;15.74;64.45;100530.10;110251;1269;22311;-59
2023/04/21 09:53:21;;;;;;;20.70;7.80;;;;;;;15.84;63.56;100525.21;110223;1270;22727;-57
2023/04/21 09:55:55;;;;;;;19.10;8.10;;;;;;;15.98;62.97;100523.90;110227;1270;22796;-58
2023/04/21 09:58:33;;;;;;;17.30;7.50;;;;;;;16.06;62.35;100522.12;110287;1270;22178;-58
2023/04/21 10:01:05;;;;;;;19.40;6.80;;;;;;;16.15;62.63;100522.45;110242;1271;22644;-58
2023/04/21 10:03:38;;;;;;;21.00;9.50;;;;;;;16.23;61.04;100520.19;110178;1264;22224;-59
2023/04/21 10:06:10;;;;;;;25.00;8.30;;;;;;;16.32;60.29;100520.60;110259;1270;22228;-56
2023/04/21 10:08:42;;;;;;;19.90;8.80;;;;;;;16.35;60.56;100514.05;110269;1270;22901;-58
2023/04/21 10:11:13;;;;;;;20.60;7.90;;;;;;;16.41;59.54;100511.17;110221;1270;22181;-59
2023/04/21 10:13:46;;;;;;;17.50;5.50;;;;;;;16.47;59.26;100506.88;110269;1271;22505;-58
2023/04/21 10:16:20;;;;;;;18.60;6.20;;;;;;;16.57;58.16;100501.25;110192;1277;22262;-58
2023/04/21 10:18:52;;;;;;;20.80;6.90;;;;;;;16.67;57.55;100506.77;110250;1264;22367;-58
2023/04/21 10:21:23;;;;;;;18.40;5.80;;;;;;;16.73;56.71;100503.89;110218;1270;22163;-59
2023/04/21 10:23:54;;;;;;;18.00;6.40;;;;;;;16.81;55.91;100499.46;110248;1270;22269;-59
2023/04/21 10:26:28;;;;;;;19.30;5.70;;;;;;;16.87;54.98;100498.79;110204;1277;22283;-59
2023/04/21 10:29:01;;;;;;;12.90;4.40;;;;;;;16.92;54.19;100500.77;110240;1270;22697;-58
2023/04/21 10:31:34;;;;;;;18.50;4.80;;;;;;;16.98;53.87;100500.40;110244;1263;22325;-57
2023/04/21 10:34:34;;;;;;;15.40;4.20;;;;;;;17.01;52.11;100496.44;110276;1265;22309;-59
2023/04/21 10:37:18;;;;;;;14.60;5.30;;;;;;;17.05;51.61;100494.90;110131;1272;22915;-59
2023/04/21 10:39:54;;;;;;;15.90;5.60;;;;;;;17.12;50.94;100489.95;110250;1267;22262;-61
2023/04/21 10:42:30;;;;;;;12.70;4.50;;;;;;;17.18;51.26;100490.60;110228;1270;22208;-58
2023/04/21 10:45:11;;;;;;;19.10;5.90;;;;;;;17.25;50.79;100487.23;110242;1270;22257;-57
2023/04/21 10:47:47;;;;;;;13.90;3.70;;;;;;;17.29;50.08;100484.48;110187;1263;22187;-58
2023/04/21 10:50:24;;;;;;;13.60;3.10;;;;;;;17.35;48.93;100478.92;110201;1273;22257;-58
2023/04/21 10:52:58;;;;;;;16.10;3.80;;;;;;;17.43;48.40;100482.38;107225;1262;22569;-58
2023/04/21 10:55:30;;;;;;;9.50;3.20;;;;;;;17.46;47.47;100476.75;106320;1271;22604;-56
2023/04/21 10:58:04;;;;;;;17.80;4.00;;;;;;;17.50;47.26;100476.81;110220;1270;22518;-58
2023/04/21 11:00:36;;;;;;;11.00;3.90;;;;;;;17.56;47.12;100479.36;110240;1264;22265;-56
2023/04/21 11:03:08;;;;;;;20.10;5.00;;;;;;;17.61;46.78;100472.55;110196;1271;23300;-59
2023/04/21 11:05:41;;;;;;;10.20;3.00;;;;;;;17.64;45.73;100468.94;110233;1270;22189;-59
2023/04/21 11:08:14;;;;;;;12.20;3.90;;;;;;;17.65;44.81;100462.25;110241;1270;23422;-58
2023/04/21 11:10:51;;;;;;;12.60;3.80;;;;;;;17.68;45.21;100460.34;110239;1264;22375;-59
2023/04/21 11:13:27;;;;;;;12.80;3.20;;;;;;;17.72;45.21;100461.80;110226;1277;22179;-58
2023/04/21 11:16:00;;;;;;;12.50;3.90;;;;;;;17.79;45.14;100459.75;110266;1264;22229;-57
2023/04/21 11:18:42;;;;;;;16.30;3.60;;;;;;;17.87;44.86;100459.59;110194;1275;22405;-59
2023/04/21 11:21:16;;;;;;;13.50;3.60;;;;;;;17.96;44.36;100453.98;110259;1271;23120;-58
2023/04/21 11:23:56;;;;;;;9.60;3.00;;;;;;;18.06;44.59;100456.02;110142;1264;22629;-58
2023/04/21 11:26:37;;;;;;;10.50;3.30;;;;;;;18.16;43.91;100451.73;110197;1275;22739;-59
2023/04/21 11:29:10;;;;;;;13.40;4.30;;;;;;;18.25;44.09;100450.56;110226;1270;22144;-59
2023/04/21 11:31:43;;;;;;;13.20;4.20;;;;;;;18.33;43.39;100451.31;110216;1267;22352;-56